Time;durP1;ratioP1;P1;durP2;ratioP2;P2;SDS_P1;SDS_P2;PMS_P1;PMS_P2;Temp;Humidity;BMP_temperature;BMP_pressure;BME280_temperature;BME280_humidity;BME280_pressure;Samples;Min_cycle;Max_cycle;Signal;HPM_P1;HPM_P2
2022/03/17 00:02:24;;;;;;;;;;;;;;;;;;5049092;28;20355;-68
2022/03/17 00:04:50;;;;;;;;;;;;;;;;;;5058779;28;19913;-68
2022/03/17 00:07:16;;;;;;;;;;;;;;;;;;5063366;28;20047;-68
2022/03/17 00:09:42;;;;;;;;;;;;;;;;;;5058735;28;19936;-67
2022/03/17 00:12:09;;;;;;;;;;;;;;;;;;4716248;28;10000067;-67
2022/03/17 00:14:35;;;;;;;;;;;;;;;;;;5064682;28;20402;-67
2022/03/17 00:17:01;;;;;;;;;;;;;;;;;;5060519;28;19928;-66
2022/03/17 00:19:27;;;;;;;;;;;;;;;;;;5058669;28;20027;-68
2022/03/17 00:21:54;;;;;;;;;;;;;;;;;;5064386;28;19935;-70
2022/03/17 00:24:20;;;;;;;;;;;;;;;;;;5075862;22;19951;-61
2022/03/17 00:26:46;;;;;;;;;;;;;;;;;;5052338;28;20378;-62
2022/03/17 00:29:12;;;;;;;;;;;;;;;;;;5054306;28;19924;-61
2022/03/17 00:31:39;;;;;;;;;;;;;;;;;;5054170;28;19967;-62
2022/03/17 00:34:06;;;;;;;;;;;;;;;;;;5054003;28;20036;-62
2022/03/17 00:36:33;;;;;;;;;;;;;;;;;;5053973;28;19924;-62
2022/03/17 00:38:59;;;;;;;;;;;;;;;;;;5053182;28;19929;-60
2022/03/17 00:41:25;;;;;;;;;;;;;;;;;;5054130;28;19925;-62
2022/03/17 00:43:51;;;;;;;;;;;;;;;;;;5052065;28;19925;-62
2022/03/17 00:46:17;;;;;;;;;;;;;;;;;;5048960;28;19936;-62
2022/03/17 00:48:43;;;;;;;;;;;;;;;;;;5053061;28;19925;-61
2022/03/17 00:51:09;;;;;;;;;;;;;;;;;;5044610;28;20390;-61
2022/03/17 00:53:36;;;;;;;;;;;;;;;;;;5033022;28;20449;-60
2022/03/17 00:56:02;;;;;;;;;;;;;;;;;;5040246;28;20305;-61
2022/03/17 00:58:29;;;;;;;;;;;;;;;;;;5038056;28;20447;-59
2022/03/17 01:00:55;;;;;;;;;;;;;;;;;;5033537;28;19925;-60
2022/03/17 01:03:21;;;;;;;;;;;;;;;;;;5032559;28;20398;-60
2022/03/17 01:05:48;;;;;;;;;;;;;;;;;;5033253;28;19984;-63
2022/03/17 01:08:14;;;;;;;;;;;;;;;;;;5033036;28;20296;-61
2022/03/17 01:10:42;;;;;;;;;;;;;;;;;;5033027;28;19925;-61
2022/03/17 01:13:09;;;;;;;;;;;;;;;;;;5032200;28;20417;-62
2022/03/17 01:15:35;;;;;;;;;;;;;;;;;;5032851;28;20400;-60
2022/03/17 01:18:02;;;;;;;;;;;;;;;;;;5040314;28;20317;-62
2022/03/17 01:20:29;;;;;;;;;;;;;;;;;;5045200;28;19925;-62
2022/03/17 01:22:55;;;;;;;;;;;;;;;;;;5034427;28;20414;-67
2022/03/17 01:25:21;;;;;;;;;;;;;;;;;;5031514;28;19952;-68
2022/03/17 01:27:47;;;;;;;;;;;;;;;;;;5036750;28;19929;-67
2022/03/17 01:30:13;;;;;;;;;;;;;;;;;;5033335;28;19932;-68
2022/03/17 01:32:40;;;;;;;;;;;;;;;;;;5032288;28;20242;-68
2022/03/17 01:35:07;;;;;;;;;;;;;;;;;;5032410;28;19925;-68
2022/03/17 01:37:33;;;;;;;;;;;;;;;;;;5031539;28;19925;-68
2022/03/17 01:39:59;;;;;;;;;;;;;;;;;;5031527;28;19936;-69
2022/03/17 01:42:25;;;;;;;;;;;;;;;;;;5031312;28;19929;-72
2022/03/17 01:44:52;;;;;;;;;;;;;;;;;;5038752;28;19961;-60
2022/03/17 01:47:31;;;;;;;;;;;;;;;;;;5047892;28;19924;-60
2022/03/17 01:49:58;;;;;;;;;;;;;;;;;;5047801;28;19953;-60
2022/03/17 01:52:24;;;;;;;;;;;;;;;;;;5032359;28;20306;-58
2022/03/17 01:54:50;;;;;;;;;;;;;;;;;;5030576;28;19929;-67
2022/03/17 01:57:16;;;;;;;;;;;;;;;;;;5042157;28;20314;-68
2022/03/17 01:59:42;;;;;;;;;;;;;;;;;;5031541;28;19925;-70
2022/03/17 02:02:08;;;;;;;;;;;;;;;;;;5044475;28;20033;-69
2022/03/17 02:04:35;;;;;;;;;;;;;;;;;;5030772;28;20219;-68
2022/03/17 02:07:01;;;;;;;;;;;;;;;;;;5031027;28;20457;-66
2022/03/17 02:09:27;;;;;;;;;;;;;;;;;;5030680;28;19929;-69
2022/03/17 02:14:38;;;;;;;;;;;;;;;;;;5030942;28;19955;-67
2022/03/17 02:17:05;;;;;;;;;;;;;;;;;;5031152;28;19932;-62
2022/03/17 02:19:32;;;;;;;;;;;;;;;;;;5047521;28;20015;-61
2022/03/17 02:21:58;;;;;;;;;;;;;;;;;;5037038;28;19933;-61
2022/03/17 02:27:08;;;;;;;;;;;;;;;;;;5033990;28;20396;-60
2022/03/17 02:29:34;;;;;;;;;;;;;;;;;;5031727;28;20314;-61
2022/03/17 02:32:00;;;;;;;;;;;;;;;;;;5029445;28;19947;-65
2022/03/17 02:34:26;;;;;;;;;;;;;;;;;;5030414;28;19925;-60
2022/03/17 02:36:54;;;;;;;;;;;;;;;;;;5030682;28;19925;-60
2022/03/17 02:39:20;;;;;;;;;;;;;;;;;;5030082;28;20010;-65
2022/03/17 02:41:47;;;;;;;;;;;;;;;;;;5030118;28;19951;-63
2022/03/17 02:44:13;;;;;;;;;;;;;;;;;;5031739;28;20149;-62
2022/03/17 02:46:39;;;;;;;;;;;;;;;;;;5044185;28;19939;-64
2022/03/17 02:49:05;;;;;;;;;;;;;;;;;;5046066;28;19925;-63
2022/03/17 02:51:31;;;;;;;;;;;;;;;;;;5038917;28;20012;-62
2022/03/17 02:53:57;;;;;;;;;;;;;;;;;;5030639;28;19968;-63
2022/03/17 02:56:24;;;;;;;;;;;;;;;;;;5040094;28;19931;-63
2022/03/17 02:58:51;;;;;;;;;;;;;;;;;;5031398;28;19929;-62
2022/03/17 03:01:17;;;;;;;;;;;;;;;;;;5043748;28;19967;-62
2022/03/17 03:03:43;;;;;;;;;;;;;;;;;;5031417;28;19994;-62
2022/03/17 03:06:09;;;;;;;;;;;;;;;;;;5030910;28;19925;-62
2022/03/17 03:08:35;;;;;;;;;;;;;;;;;;5030852;28;20001;-62
2022/03/17 03:11:01;;;;;;;;;;;;;;;;;;5031356;28;19963;-61
2022/03/17 03:13:27;;;;;;;;;;;;;;;;;;5030711;28;19935;-62
2022/03/17 03:15:54;;;;;;;;;;;;;;;;;;5030964;28;19950;-62
2022/03/17 03:18:20;;;;;;;;;;;;;;;;;;5041411;28;20240;-64
2022/03/17 03:20:46;;;;;;;;;;;;;;;;;;5043544;28;19978;-65
2022/03/17 03:23:12;;;;;;;;;;;;;;;;;;5030552;28;19932;-63
2022/03/17 03:25:38;;;;;;;;;;;;;;;;;;5029750;28;19925;-62
2022/03/17 03:28:05;;;;;;;;;;;;;;;;;;5034293;28;19929;-62
2022/03/17 03:30:31;;;;;;;;;;;;;;;;;;5030640;28;19925;-62
2022/03/17 03:32:57;;;;;;;;;;;;;;;;;;5029881;28;19926;-73
2022/03/17 03:38:07;;;;;;;;;;;;;;;;;;5048084;28;19990;-70
2022/03/17 03:40:33;;;;;;;;;;;;;;;;;;5031827;28;19947;-61
2022/03/17 03:43:00;;;;;;;;;;;;;;;;;;5030488;28;19932;-60
2022/03/17 03:45:26;;;;;;;;;;;;;;;;;;5043071;28;20150;-60
2022/03/17 03:47:52;;;;;;;;;;;;;;;;;;5049081;28;19933;-61
2022/03/17 03:50:18;;;;;;;;;;;;;;;;;;5047956;28;19932;-61
2022/03/17 03:52:44;;;;;;;;;;;;;;;;;;5033559;28;19925;-61
2022/03/17 03:55:10;;;;;;;;;;;;;;;;;;5034277;28;19936;-61
2022/03/17 03:57:37;;;;;;;;;;;;;;;;;;5044873;28;19932;-62
2022/03/17 04:00:04;;;;;;;;;;;;;;;;;;5034658;28;19932;-63
2022/03/17 04:02:30;;;;;;;;;;;;;;;;;;5033701;28;20015;-61
2022/03/17 04:04:56;;;;;;;;;;;;;;;;;;5033596;28;20298;-62
2022/03/17 04:07:22;;;;;;;;;;;;;;;;;;5033498;28;20343;-60
2022/03/17 04:09:48;;;;;;;;;;;;;;;;;;5032927;28;20454;-60
2022/03/17 04:12:15;;;;;;;;;;;;;;;;;;5033171;28;19971;-61
2022/03/17 04:14:41;;;;;;;;;;;;;;;;;;5033738;28;19971;-61
2022/03/17 04:17:07;;;;;;;;;;;;;;;;;;5034322;28;19925;-60
2022/03/17 04:19:33;;;;;;;;;;;;;;;;;;5052709;28;19931;-62
2022/03/17 04:21:59;;;;;;;;;;;;;;;;;;5043200;28;19936;-61
2022/03/17 04:24:26;;;;;;;;;;;;;;;;;;5032441;28;20397;-61
2022/03/17 04:26:52;;;;;;;;;;;;;;;;;;5034623;28;20289;-62
2022/03/17 04:29:18;;;;;;;;;;;;;;;;;;5036883;28;19968;-60
2022/03/17 04:31:44;;;;;;;;;;;;;;;;;;5032518;28;19932;-62
2022/03/17 04:34:11;;;;;;;;;;;;;;;;;;5032476;28;19936;-61
2022/03/17 04:36:37;;;;;;;;;;;;;;;;;;5032808;28;19932;-59
2022/03/17 04:39:03;;;;;;;;;;;;;;;;;;5032128;28;20321;-59
2022/03/17 04:41:29;;;;;;;;;;;;;;;;;;5032338;28;20285;-58
2022/03/17 04:43:55;;;;;;;;;;;;;;;;;;5032393;28;19925;-58
2022/03/17 04:46:21;;;;;;;;;;;;;;;;;;5048035;28;19970;-60
2022/03/17 04:48:47;;;;;;;;;;;;;;;;;;5049674;28;19924;-61
2022/03/17 04:51:14;;;;;;;;;;;;;;;;;;5041740;28;19973;-59
2022/03/17 04:53:40;;;;;;;;;;;;;;;;;;5032181;28;19985;-59
2022/03/17 04:56:07;;;;;;;;;;;;;;;;;;5039046;28;19978;-58
2022/03/17 04:58:33;;;;;;;;;;;;;;;;;;5036010;28;19973;-63
2022/03/17 05:00:59;;;;;;;;;;;;;;;;;;5032533;28;19987;-63
2022/03/17 05:03:26;;;;;;;;;;;;;;;;;;5032202;28;19988;-63
2022/03/17 05:05:52;;;;;;;;;;;;;;;;;;5032348;28;20478;-64
2022/03/17 05:08:18;;;;;;;;;;;;;;;;;;5031943;28;20024;-64
2022/03/17 05:10:45;;;;;;;;;;;;;;;;;;5032320;28;19960;-64
2022/03/17 05:13:11;;;;;;;;;;;;;;;;;;5031584;28;20392;-63
2022/03/17 05:15:37;;;;;;;;;;;;;;;;;;5031817;28;20311;-62
2022/03/17 05:18:04;;;;;;;;;;;;;;;;;;5040172;28;19965;-66
2022/03/17 05:20:30;;;;;;;;;;;;;;;;;;5045241;28;19957;-67
2022/03/17 05:22:57;;;;;;;;;;;;;;;;;;5034087;28;19957;-68
2022/03/17 05:25:23;;;;;;;;;;;;;;;;;;5032643;28;20436;-69
2022/03/17 05:27:49;;;;;;;;;;;;;;;;;;5036898;28;19978;-67
2022/03/17 05:30:16;;;;;;;;;;;;;;;;;;5033386;28;19932;-68
2022/03/17 05:32:42;;;;;;;;;;;;;;;;;;5032535;28;19929;-67
2022/03/17 05:35:08;;;;;;;;;;;;;;;;;;5032684;28;19929;-67
2022/03/17 05:37:35;;;;;;;;;;;;;;;;;;5032414;28;19953;-66
2022/03/17 05:40:02;;;;;;;;;;;;;;;;;;5033294;28;19998;-65
2022/03/17 05:42:28;;;;;;;;;;;;;;;;;;5033502;28;20139;-67
2022/03/17 05:44:54;;;;;;;;;;;;;;;;;;5040720;28;19957;-68
2022/03/17 05:47:20;;;;;;;;;;;;;;;;;;5047972;28;19941;-66
2022/03/17 05:49:47;;;;;;;;;;;;;;;;;;5040596;28;20325;-65
2022/03/17 05:52:13;;;;;;;;;;;;;;;;;;5031490;28;20327;-67
2022/03/17 05:54:39;;;;;;;;;;;;;;;;;;5030819;28;19985;-67
2022/03/17 05:57:05;;;;;;;;;;;;;;;;;;5042440;28;19946;-67
2022/03/17 05:59:31;;;;;;;;;;;;;;;;;;5031356;28;19963;-66
2022/03/17 06:01:59;;;;;;;;;;;;;;;;;;5030208;28;20447;-65
2022/03/17 06:04:25;;;;;;;;;;;;;;;;;;5030685;28;19962;-70
2022/03/17 06:06:52;;;;;;;;;;;;;;;;;;5030302;28;19926;-69
2022/03/17 06:09:18;;;;;;;;;;;;;;;;;;5030436;28;19956;-72
2022/03/17 06:11:44;;;;;;;;;;;;;;;;;;5030867;28;19948;-72
2022/03/17 06:14:11;;;;;;;;;;;;;;;;;;5031060;28;19925;-70
2022/03/17 06:16:37;;;;;;;;;;;;;;;;;;5031204;28;19925;-69
2022/03/17 06:19:03;;;;;;;;;;;;;;;;;;5047525;28;19966;-70
2022/03/17 06:21:29;;;;;;;;;;;;;;;;;;4336015;28;10000708;-70
2022/03/17 06:23:56;;;;;;;;;;;;;;;;;;5030941;28;19929;-69
2022/03/17 06:26:22;;;;;;;;;;;;;;;;;;5028338;28;19928;-69
2022/03/17 06:28:48;;;;;;;;;;;;;;;;;;5031911;28;19928;-70
2022/03/17 06:31:14;;;;;;;;;;;;;;;;;;5034411;28;19976;-71
2022/03/17 06:33:40;;;;;;;;;;;;;;;;;;5047372;28;19975;-72
2022/03/17 06:36:06;;;;;;;;;;;;;;;;;;5040423;28;20398;-69
2022/03/17 06:38:32;;;;;;;;;;;;;;;;;;5027279;28;20143;-69
2022/03/17 06:40:59;;;;;;;;;;;;;;;;;;5027536;28;19929;-66
2022/03/17 06:43:25;;;;;;;;;;;;;;;;;;5028838;28;19929;-66
2022/03/17 06:45:51;;;;;;;;;;;;;;;;;;5040705;28;19963;-71
2022/03/17 06:48:17;;;;;;;;;;;;;;;;;;5045972;28;19936;-71
2022/03/17 06:50:43;;;;;;;;;;;;;;;;;;5038146;28;19933;-71
2022/03/17 06:53:09;;;;;;;;;;;;;;;;;;5027250;28;20370;-69
2022/03/17 06:55:36;;;;;;;;;;;;;;;;;;5030126;28;19929;-70
2022/03/17 06:58:02;;;;;;;;;;;;;;;;;;5048051;28;19936;-71
2022/03/17 07:00:28;;;;;;;;;;;;;;;;;;5028691;28;20374;-69
2022/03/17 07:02:54;;;;;;;;;;;;;;;;;;5026476;28;19936;-70
2022/03/17 07:05:20;;;;;;;;;;;;;;;;;;5027191;28;20375;-69
2022/03/17 07:07:46;;;;;;;;;;;;;;;;;;5026647;28;19956;-71
2022/03/17 07:10:13;;;;;;;;;;;;;;;;;;5027011;28;20492;-70
2022/03/17 07:12:41;;;;;;;;;;;;;;;;;;5026801;28;19947;-69
2022/03/17 07:15:07;;;;;;;;;;;;;;;;;;5027256;28;19968;-71
2022/03/17 07:17:35;;;;;;;;;;;;;;;;;;5034455;28;19939;-69
2022/03/17 07:20:01;;;;;;;;;;;;;;;;;;5046337;28;19956;-69
2022/03/17 07:22:27;;;;;;;;;;;;;;;;;;5032390;28;19939;-71
2022/03/17 07:24:53;;;;;;;;;;;;;;;;;;5030825;28;19960;-70
2022/03/17 07:27:21;;;;;;;;;;;;;;;;;;5035896;28;19979;-71
2022/03/17 07:29:47;;;;;;;;;;;;;;;;;;5030898;28;19991;-70
2022/03/17 07:32:13;;;;;;;;;;;;;;;;;;5031264;28;19933;-70
2022/03/17 07:34:39;;;;;;;;;;;;;;;;;;5030955;28;19979;-71
2022/03/17 07:37:05;;;;;;;;;;;;;;;;;;5030802;28;19979;-69
2022/03/17 07:39:31;;;;;;;;;;;;;;;;;;5030463;28;20399;-69
2022/03/17 07:41:57;;;;;;;;;;;;;;;;;;5030341;28;19947;-70
2022/03/17 07:44:24;;;;;;;;;;;;;;;;;;5033951;28;19940;-70
2022/03/17 07:46:50;;;;;;;;;;;;;;;;;;5050570;28;19929;-71
2022/03/17 07:49:16;;;;;;;;;;;;;;;;;;5046556;28;19928;-70
2022/03/17 07:51:42;;;;;;;;;;;;;;;;;;5037188;28;19935;-69
2022/03/17 07:54:08;;;;;;;;;;;;;;;;;;5030655;28;19993;-70
2022/03/17 07:56:35;;;;;;;;;;;;;;;;;;5041260;28;19945;-70
2022/03/17 07:59:01;;;;;;;;;;;;;;;;;;5030580;28;19929;-69
2022/03/17 08:01:27;;;;;;;;;;;;;;;;;;5030907;28;19938;-69
2022/03/17 08:03:53;;;;;;;;;;;;;;;;;;5029987;28;19969;-70
2022/03/17 08:06:19;;;;;;;;;;;;;;;;;;5030377;28;20103;-69
2022/03/17 08:08:46;;;;;;;;;;;;;;;;;;5030164;28;19950;-69
2022/03/17 08:11:12;;;;;;;;;;;;;;;;;;5030610;28;19959;-69
2022/03/17 08:13:38;;;;;;;;;;;;;;;;;;5030459;28;19963;-70
2022/03/17 08:16:06;;;;;;;;;;;;;;;;;;5030168;28;19990;-69
2022/03/17 08:18:32;;;;;;;;;;;;;;;;;;5042152;28;19969;-70
2022/03/17 08:20:58;;;;;;;;;;;;;;;;;;5043920;28;19929;-69
2022/03/17 08:23:24;;;;;;;;;;;;;;;;;;5030330;28;19929;-70
2022/03/17 08:25:50;;;;;;;;;;;;;;;;;;5029859;28;19959;-69
2022/03/17 08:28:18;;;;;;;;;;;;;;;;;;5034618;28;19929;-72
2022/03/17 08:30:46;;;;;;;;;;;;;;;;;;5030888;28;19936;-70
2022/03/17 08:33:12;;;;;;;;;;;;;;;;;;5040348;28;19929;-70
2022/03/17 08:35:38;;;;;;;;;;;;;;;;;;5029862;28;19929;-70
2022/03/17 08:38:04;;;;;;;;;;;;;;;;;;5029319;28;20309;-70
2022/03/17 08:40:31;;;;;;;;;;;;;;;;;;5030249;28;20034;-70
2022/03/17 08:42:57;;;;;;;;;;;;;;;;;;5029635;28;19976;-71
2022/03/17 08:50:51;;;;;;;;;;;;;;;;;;5039714;28;19920;-72
2022/03/17 08:53:17;;;;;;;;;;;;;;;;;;5029816;28;19933;-73
2022/03/17 08:55:44;;;;;;;;;;;;;;;;;;5047889;28;19928;-72
2022/03/17 08:58:10;;;;;;;;;;;;;;;;;;5050118;28;19933;-72
2022/03/17 09:00:36;;;;;;;;;;;;;;;;;;5029780;28;19928;-71
2022/03/17 09:03:02;;;;;;;;;;;;;;;;;;5042949;28;19928;-72
2022/03/17 09:05:29;;;;;;;;;;;;;;;;;;5036383;28;19929;-74
2022/03/17 09:07:55;;;;;;;;;;;;;;;;;;5035479;28;20202;-70
2022/03/17 09:10:23;;;;;;;;;;;;;;;;;;5029304;28;19940;-71
2022/03/17 09:12:55;;;;;;;;;;;;;;;;;;5029089;28;19929;-72
2022/03/17 09:15:21;;;;;;;;;;;;;;;;;;5037252;28;20529;-70
2022/03/17 09:17:47;;;;;;;;;;;;;;;;;;5039996;28;19943;-70
2022/03/17 09:20:15;;;;;;;;;;;;;;;;;;5048699;28;19936;-71
2022/03/17 09:22:41;;;;;;;;;;;;;;;;;;5028605;28;19929;-70
2022/03/17 09:25:07;;;;;;;;;;;;;;;;;;5029027;28;19975;-73
2022/03/17 09:27:34;;;;;;;;;;;;;;;;;;5033048;28;20386;-71
2022/03/17 09:30:00;;;;;;;;;;;;;;;;;;5029179;28;19929;-71
2022/03/17 09:32:26;;;;;;;;;;;;;;;;;;5028807;28;19936;-71
2022/03/17 09:34:52;;;;;;;;;;;;;;;;;;5028523;28;19949;-71
2022/03/17 09:37:21;;;;;;;;;;;;;;;;;;5041974;28;20499;-73
2022/03/17 09:39:47;;;;;;;;;;;;;;;;;;5028744;28;19936;-73
2022/03/17 09:42:14;;;;;;;;;;;;;;;;;;5032294;28;20592;-72
2022/03/17 09:44:41;;;;;;;;;;;;;;;;;;5044090;28;20023;-73
2022/03/17 09:47:09;;;;;;;;;;;;;;;;;;5046195;28;20376;-73
2022/03/17 09:49:36;;;;;;;;;;;;;;;;;;5043869;28;19929;-73
2022/03/17 09:52:05;;;;;;;;;;;;;;;;;;5045370;28;19935;-73
2022/03/17 09:54:33;;;;;;;;;;;;;;;;;;5038163;28;19928;-72
2022/03/17 09:56:59;;;;;;;;;;;;;;;;;;5045913;28;19962;-72
2022/03/17 09:59:25;;;;;;;;;;;;;;;;;;5038507;28;19929;-72
2022/03/17 10:01:52;;;;;;;;;;;;;;;;;;5041844;28;19936;-73
2022/03/17 10:04:18;;;;;;;;;;;;;;;;;;5039573;28;20084;-73
2022/03/17 10:06:44;;;;;;;;;;;;;;;;;;5034941;28;19936;-73
2022/03/17 10:09:10;;;;;;;;;;;;;;;;;;5037360;28;19929;-73
2022/03/17 10:11:37;;;;;;;;;;;;;;;;;;5041500;28;19929;-73
2022/03/17 10:14:05;;;;;;;;;;;;;;;;;;5038981;28;20662;-73
2022/03/17 10:16:31;;;;;;;;;;;;;;;;;;5042250;28;19928;-74
2022/03/17 10:18:57;;;;;;;;;;;;;;;;;;5054754;28;19929;-74
2022/03/17 10:21:25;;;;;;;;;;;;;;;;;;5032709;28;19932;-73
2022/03/17 10:23:51;;;;;;;;;;;;;;;;;;5063886;22;19982;-73
2022/03/17 10:26:17;;;;;;;;;;;;;;;;;;5068801;28;20003;-73
2022/03/17 10:28:43;;;;;;;;;;;;;;;;;;5069881;28;20385;-74
2022/03/17 10:31:11;;;;;;;;;;;;;;;;;;4716139;28;10000565;-73
2022/03/17 10:33:37;;;;;;;;;;;;;;;;;;5061299;28;19925;-72
2022/03/17 10:36:04;;;;;;;;;;;;;;;;;;5064549;28;19931;-74
2022/03/17 10:38:30;;;;;;;;;;;;;;;;;;5067033;28;20233;-73
2022/03/17 10:40:56;;;;;;;;;;;;;;;;;;5053589;28;20372;-73
2022/03/17 10:43:23;;;;;;;;;;;;;;;;;;5066922;28;19971;-73
2022/03/17 10:45:49;;;;;;;;;;;;;;;;;;5065255;28;19928;-73
2022/03/17 10:48:15;;;;;;;;;;;;;;;;;;5064570;28;20376;-73
2022/03/17 10:50:42;;;;;;;;;;;;;;;;;;5058947;28;19928;-73
2022/03/17 10:53:08;;;;;;;;;;;;;;;;;;5066463;28;19932;-73
2022/03/17 10:55:34;;;;;;;;;;;;;;;;;;5067173;28;19928;-73
2022/03/17 10:58:00;;;;;;;;;;;;;;;;;;5065843;28;19939;-74
2022/03/17 11:00:27;;;;;;;;;;;;;;;;;;5067206;28;19929;-73
2022/03/17 11:02:57;;;;;;;;;;;;;;;;;;5067718;28;20199;-73
2022/03/17 11:05:23;;;;;;;;;;;;;;;;;;5067135;28;19972;-73
2022/03/17 11:07:49;;;;;;;;;;;;;;;;;;5066763;28;20102;-73
2022/03/17 11:10:18;;;;;;;;;;;;;;;;;;5054140;28;19929;-73
2022/03/17 11:12:44;;;;;;;;;;;;;;;;;;5064878;28;19928;-72
2022/03/17 11:15:11;;;;;;;;;;;;;;;;;;5065404;28;19929;-72
2022/03/17 11:17:37;;;;;;;;;;;;;;;;;;5067164;28;19924;-73
2022/03/17 11:20:03;;;;;;;;;;;;;;;;;;5068432;28;19928;-74
2022/03/17 11:22:32;;;;;;;;;;;;;;;;;;5070614;28;19929;-73
2022/03/17 11:24:58;;;;;;;;;;;;;;;;;;5067537;28;19929;-73
2022/03/17 11:27:24;;;;;;;;;;;;;;;;;;5067952;28;19924;-73
2022/03/17 11:29:50;;;;;;;;;;;;;;;;;;5076000;28;19928;-72
2022/03/17 11:32:17;;;;;;;;;;;;;;;;;;5072153;28;19929;-73
2022/03/17 11:34:46;;;;;;;;;;;;;;;;;;5074289;28;19935;-73
2022/03/17 11:37:13;;;;;;;;;;;;;;;;;;5066009;28;19929;-73
2022/03/17 11:39:39;;;;;;;;;;;;;;;;;;5074100;28;19996;-72
2022/03/17 11:42:06;;;;;;;;;;;;;;;;;;5071542;28;19924;-73
2022/03/17 11:44:32;;;;;;;;;;;;;;;;;;5073772;28;19925;-74
2022/03/17 11:46:58;;;;;;;;;;;;;;;;;;5066559;28;19924;-73
2022/03/17 11:49:24;;;;;;;;;;;;;;;;;;5073244;28;19925;-74
2022/03/17 11:51:50;;;;;;;;;;;;;;;;;;5056743;28;19928;-73
2022/03/17 11:54:16;;;;;;;;;;;;;;;;;;5066221;28;20396;-73
2022/03/17 11:56:43;;;;;;;;;;;;;;;;;;5058804;28;20590;-73
2022/03/17 11:59:09;;;;;;;;;;;;;;;;;;5057842;28;19924;-73
2022/03/17 12:01:36;;;;;;;;;;;;;;;;;;5066677;28;19924;-73
2022/03/17 12:04:02;;;;;;;;;;;;;;;;;;5060571;28;20008;-73
2022/03/17 12:06:28;;;;;;;;;;;;;;;;;;5066284;28;19940;-73
2022/03/17 12:08:55;;;;;;;;;;;;;;;;;;5069200;28;19954;-73
2022/03/17 12:11:23;;;;;;;;;;;;;;;;;;5069568;28;19975;-73
2022/03/17 12:13:49;;;;;;;;;;;;;;;;;;5062346;28;19940;-73
2022/03/17 12:16:17;;;;;;;;;;;;;;;;;;5067437;28;20297;-74
2022/03/17 12:18:43;;;;;;;;;;;;;;;;;;5069504;28;19959;-75
2022/03/17 12:21:09;;;;;;;;;;;;;;;;;;5071399;28;20056;-72
2022/03/17 12:23:35;;;;;;;;;;;;;;;;;;5062187;28;19928;-73
2022/03/17 12:26:03;;;;;;;;;;;;;;;;;;5067406;28;20117;-73
2022/03/17 12:28:29;;;;;;;;;;;;;;;;;;5073929;28;19928;-75
2022/03/17 12:30:56;;;;;;;;;;;;;;;;;;5072645;28;19968;-72
2022/03/17 12:33:22;;;;;;;;;;;;;;;;;;5069561;28;19939;-75
2022/03/17 12:35:50;;;;;;;;;;;;;;;;;;5063740;28;20007;-74
2022/03/17 12:38:16;;;;;;;;;;;;;;;;;;5064144;28;19928;-74
2022/03/17 12:40:43;;;;;;;;;;;;;;;;;;5073832;28;19931;-74
2022/03/17 12:43:09;;;;;;;;;;;;;;;;;;5071788;28;20294;-74
2022/03/17 12:45:35;;;;;;;;;;;;;;;;;;5072750;28;20250;-74
2022/03/17 12:48:02;;;;;;;;;;;;;;;;;;5067776;28;20285;-73
2022/03/17 12:50:28;;;;;;;;;;;;;;;;;;5065351;28;20118;-73
2022/03/17 12:52:54;;;;;;;;;;;;;;;;;;5067179;28;19940;-73
2022/03/17 12:55:21;;;;;;;;;;;;;;;;;;5069865;28;19928;-73
2022/03/17 12:57:47;;;;;;;;;;;;;;;;;;5057473;28;20023;-73
2022/03/17 13:00:14;;;;;;;;;;;;;;;;;;5068071;28;19939;-73
2022/03/17 13:02:40;;;;;;;;;;;;;;;;;;5068947;28;20349;-74
2022/03/17 13:07:46;;;;;;;;;;;;;;;;;;5067544;28;19974;-73
2022/03/17 13:10:12;;;;;;;;;;;;;;;;;;5067655;28;19932;-73
2022/03/17 13:15:26;;;;;;;;;;;;;;;;;;5065684;28;20054;-73
2022/03/17 13:17:52;;;;;;;;;;;;;;;;;;5063839;28;19951;-73
2022/03/17 13:20:18;;;;;;;;;;;;;;;;;;5068644;28;19935;-73
2022/03/17 13:22:44;;;;;;;;;;;;;;;;;;5068320;28;19933;-73
2022/03/17 13:25:10;;;;;;;;;;;;;;;;;;5069113;28;19928;-73
2022/03/17 13:27:37;;;;;;;;;;;;;;;;;;5066598;28;19947;-72
2022/03/17 13:30:03;;;;;;;;;;;;;;;;;;5070403;28;19928;-73
2022/03/17 13:32:29;;;;;;;;;;;;;;;;;;5055479;28;19924;-72
2022/03/17 13:34:55;;;;;;;;;;;;;;;;;;5059638;28;19924;-73
2022/03/17 13:37:21;;;;;;;;;;;;;;;;;;5053894;28;19929;-73
2022/03/17 13:39:48;;;;;;;;;;;;;;;;;;5064059;28;19931;-74
2022/03/17 13:42:14;;;;;;;;;;;;;;;;;;5068700;28;19932;-74
2022/03/17 13:44:40;;;;;;;;;;;;;;;;;;5068851;28;19924;-74
2022/03/17 13:47:06;;;;;;;;;;;;;;;;;;5064638;28;19928;-74
2022/03/17 13:49:36;;;;;;;;;;;;;;;;;;5069131;28;20285;-74
2022/03/17 13:52:02;;;;;;;;;;;;;;;;;;5072705;28;19928;-74
2022/03/17 13:54:28;;;;;;;;;;;;;;;;;;5056925;28;19936;-73
2022/03/17 13:56:55;;;;;;;;;;;;;;;;;;5062292;28;19932;-73
2022/03/17 13:59:21;;;;;;;;;;;;;;;;;;5060025;28;20266;-73
2022/03/17 14:01:47;;;;;;;;;;;;;;;;;;5060241;28;19924;-73
2022/03/17 14:04:13;;;;;;;;;;;;;;;;;;5065474;28;19948;-73
2022/03/17 14:06:40;;;;;;;;;;;;;;;;;;5062524;28;20385;-73
2022/03/17 14:09:07;;;;;;;;;;;;;;;;;;5059347;28;19939;-73
2022/03/17 14:11:33;;;;;;;;;;;;;;;;;;5055894;28;20381;-73
2022/03/17 14:13:59;;;;;;;;;;;;;;;;;;5065625;28;20007;-73
2022/03/17 14:16:25;;;;;;;;;;;;;;;;;;5058891;28;20326;-73
2022/03/17 14:18:52;;;;;;;;;;;;;;;;;;5065064;28;19931;-73
2022/03/17 14:21:18;;;;;;;;;;;;;;;;;;5059160;28;20120;-73
2022/03/17 14:26:29;;;;;;;;;;;;;;;;;;5067188;28;20058;-73
2022/03/17 14:28:55;;;;;;;;;;;;;;;;;;5059668;28;20035;-74
2022/03/17 14:31:21;;;;;;;;;;;;;;;;;;5067400;28;20282;-73
2022/03/17 14:33:47;;;;;;;;;;;;;;;;;;5060495;28;19924;-73
2022/03/17 14:36:14;;;;;;;;;;;;;;;;;;5050684;28;19935;-73
2022/03/17 14:38:40;;;;;;;;;;;;;;;;;;5066442;28;19938;-72
2022/03/17 14:41:06;;;;;;;;;;;;;;;;;;5058787;28;19936;-73
2022/03/17 14:43:32;;;;;;;;;;;;;;;;;;5067247;28;19925;-72
2022/03/17 14:45:58;;;;;;;;;;;;;;;;;;5066109;28;19945;-73
2022/03/17 14:48:24;;;;;;;;;;;;;;;;;;5064151;28;19939;-73
2022/03/17 14:50:51;;;;;;;;;;;;;;;;;;5058146;28;20443;-73
2022/03/17 14:53:17;;;;;;;;;;;;;;;;;;5054390;28;19929;-72
2022/03/17 14:55:43;;;;;;;;;;;;;;;;;;5065795;28;19955;-72
2022/03/17 14:58:09;;;;;;;;;;;;;;;;;;5066729;28;19929;-72
2022/03/17 15:00:35;;;;;;;;;;;;;;;;;;5065894;28;19935;-72
2022/03/17 15:03:02;;;;;;;;;;;;;;;;;;5066736;28;19928;-72
2022/03/17 15:05:28;;;;;;;;;;;;;;;;;;5064394;28;19968;-72
2022/03/17 15:07:54;;;;;;;;;;;;;;;;;;5063593;28;19928;-73
2022/03/17 15:10:20;;;;;;;;;;;;;;;;;;5060288;28;19929;-72
2022/03/17 15:12:46;;;;;;;;;;;;;;;;;;5063665;28;20396;-72
2022/03/17 15:15:12;;;;;;;;;;;;;;;;;;5058290;28;19928;-72
2022/03/17 15:17:39;;;;;;;;;;;;;;;;;;5064067;28;20386;-72
2022/03/17 15:20:05;;;;;;;;;;;;;;;;;;5067108;28;19940;-72
2022/03/17 15:22:31;;;;;;;;;;;;;;;;;;5067892;28;19928;-72
2022/03/17 15:24:57;;;;;;;;;;;;;;;;;;5067335;28;20152;-72
2022/03/17 15:30:11;;;;;;;;;;;;;;;;;;5058273;28;20191;-72
2022/03/17 15:32:37;;;;;;;;;;;;;;;;;;5047839;28;20172;-72
2022/03/17 15:35:03;;;;;;;;;;;;;;;;;;5066612;28;20386;-72
2022/03/17 15:37:29;;;;;;;;;;;;;;;;;;5064872;28;19929;-72
2022/03/17 15:39:55;;;;;;;;;;;;;;;;;;5068315;28;19941;-72
2022/03/17 15:42:22;;;;;;;;;;;;;;;;;;5068865;28;20342;-72
2022/03/17 15:44:48;;;;;;;;;;;;;;;;;;5066258;28;20591;-72
2022/03/17 15:47:14;;;;;;;;;;;;;;;;;;5064304;28;19932;-72
2022/03/17 15:49:40;;;;;;;;;;;;;;;;;;5062819;28;20455;-71
2022/03/17 15:52:07;;;;;;;;;;;;;;;;;;5064692;28;19940;-72
2022/03/17 15:54:33;;;;;;;;;;;;;;;;;;5068820;28;20361;-72
2022/03/17 15:56:59;;;;;;;;;;;;;;;;;;5061619;28;19924;-72
2022/03/17 15:59:25;;;;;;;;;;;;;;;;;;5064103;28;19932;-72
2022/03/17 16:01:51;;;;;;;;;;;;;;;;;;5065136;28;19931;-72
2022/03/17 16:04:18;;;;;;;;;;;;;;;;;;5057037;28;19928;-72
2022/03/17 16:06:44;;;;;;;;;;;;;;;;;;5061270;28;19933;-72
2022/03/17 16:09:10;;;;;;;;;;;;;;;;;;5060425;28;19924;-72
2022/03/17 16:14:29;;;;;;;;;;;;;;;;;;5064375;28;20046;-72
2022/03/17 16:16:55;;;;;;;;;;;;;;;;;;5063186;28;20278;-72
2022/03/17 16:19:23;;;;;;;;;;;;;;;;;;5069209;28;20001;-72
2022/03/17 16:21:50;;;;;;;;;;;;;;;;;;5069286;28;19928;-72
2022/03/17 16:24:16;;;;;;;;;;;;;;;;;;5069838;28;19985;-71
2022/03/17 16:26:42;;;;;;;;;;;;;;;;;;5068663;28;19935;-71
2022/03/17 16:29:08;;;;;;;;;;;;;;;;;;5067876;28;19928;-72
2022/03/17 16:31:34;;;;;;;;;;;;;;;;;;5069836;28;20019;-72
2022/03/17 16:34:00;;;;;;;;;;;;;;;;;;5069325;28;19928;-71
2022/03/17 16:36:27;;;;;;;;;;;;;;;;;;5069739;28;19936;-72
2022/03/17 16:38:58;;;;;;;;;;;;;;;;;;5070133;28;20024;-72
2022/03/17 16:41:24;;;;;;;;;;;;;;;;;;5058585;28;20017;-72
2022/03/17 16:43:50;;;;;;;;;;;;;;;;;;5070114;28;20040;-71
2022/03/17 16:46:17;;;;;;;;;;;;;;;;;;5069406;28;19932;-71
2022/03/17 16:48:43;;;;;;;;;;;;;;;;;;5069351;28;20374;-71
2022/03/17 16:51:10;;;;;;;;;;;;;;;;;;5067967;28;20023;-71
2022/03/17 16:53:36;;;;;;;;;;;;;;;;;;5066799;28;20023;-71
2022/03/17 16:56:02;;;;;;;;;;;;;;;;;;5070558;28;20012;-72
2022/03/17 16:58:28;;;;;;;;;;;;;;;;;;5070915;28;19991;-71
2022/03/17 17:00:54;;;;;;;;;;;;;;;;;;5068618;28;20026;-71
2022/03/17 17:03:20;;;;;;;;;;;;;;;;;;5059973;28;20605;-71
2022/03/17 17:05:47;;;;;;;;;;;;;;;;;;5068862;28;19924;-71
2022/03/17 17:08:14;;;;;;;;;;;;;;;;;;5070451;28;19964;-71